createdAt,value
2023-03-23T00:01:23.202Z,94129.50
2023-03-23T00:03:53.063Z,94141.59
2023-03-23T00:06:22.234Z,94120.00
2023-03-23T00:08:58.301Z,94107.56
2023-03-23T00:11:30.423Z,94111.84
2023-03-23T00:14:02.186Z,94093.00
2023-03-23T00:16:38.665Z,94101.03
2023-03-23T00:19:16.452Z,94132.94
2023-03-23T00:21:44.562Z,94110.53
2023-03-23T00:24:17.417Z,94100.88
2023-03-23T00:26:50.580Z,94105.31
2023-03-23T00:29:22.393Z,94118.38
2023-03-23T00:31:50.726Z,94115.47
2023-03-23T00:34:23.125Z,94118.69
2023-03-23T00:36:58.092Z,94079.44
2023-03-23T00:39:28.094Z,94102.34
2023-03-23T00:42:01.771Z,94092.88
2023-03-23T00:44:36.139Z,94084.88
2023-03-23T00:47:04.508Z,94066.38
2023-03-23T00:49:31.438Z,94108.88
2023-03-23T00:51:59.806Z,94073.91
2023-03-23T00:54:26.932Z,94092.38
2023-03-23T00:56:55.012Z,94103.69
2023-03-23T00:59:22.945Z,94057.22
2023-03-23T01:01:50.680Z,94088.28
2023-03-23T01:04:17.851Z,94096.13
2023-03-23T01:06:46.490Z,94069.31
2023-03-23T01:09:16.359Z,94093.00
2023-03-23T01:11:44.829Z,94091.56
2023-03-23T01:14:14.452Z,94094.34
2023-03-23T01:16:41.426Z,94063.59
2023-03-23T01:19:08.684Z,94104.66
2023-03-23T01:21:35.717Z,94077.97
2023-03-23T01:24:02.664Z,94077.00
2023-03-23T01:26:31.008Z,94063.44
2023-03-23T01:28:58.718Z,94066.69
2023-03-23T01:31:27.436Z,94080.91
2023-03-23T01:33:56.505Z,94050.00
2023-03-23T01:36:29.965Z,94043.81
2023-03-23T01:38:59.477Z,94038.88
2023-03-23T01:41:26.481Z,94074.69
2023-03-23T01:44:31.288Z,94063.44
2023-03-23T01:46:58.750Z,94047.25
2023-03-23T01:49:38.111Z,94074.38
2023-03-23T01:52:18.412Z,94073.41
2023-03-23T01:54:47.572Z,94052.63
2023-03-23T01:57:18.268Z,94028.75
2023-03-23T01:59:54.780Z,94007.50
2023-03-23T02:02:24.536Z,94018.97
2023-03-23T02:04:53.200Z,94078.97
2023-03-23T02:07:21.830Z,94061.16
2023-03-23T02:09:49.612Z,94026.16
2023-03-23T02:12:16.879Z,94016.84
2023-03-23T02:14:43.966Z,94042.66
2023-03-23T02:17:32.688Z,94048.88
2023-03-23T02:20:26.887Z,94059.00
2023-03-23T02:23:19.957Z,94015.69
2023-03-23T02:26:16.599Z,94040.53
2023-03-23T02:29:23.468Z,94059.34
2023-03-23T02:32:13.569Z,94037.25
2023-03-23T02:34:43.317Z,94042.50
2023-03-23T02:37:37.897Z,94046.75
2023-03-23T02:40:24.064Z,94066.69
2023-03-23T02:42:55.902Z,94040.22
2023-03-23T02:45:25.703Z,94002.44
2023-03-23T02:47:54.964Z,94002.75
2023-03-23T02:50:28.345Z,94024.16
2023-03-23T02:52:57.665Z,93997.88
2023-03-23T02:55:25.939Z,94017.78
2023-03-23T02:57:56.578Z,94029.53
2023-03-23T03:00:24.063Z,94023.34
2023-03-23T03:02:55.062Z,93981.50
2023-03-23T03:06:04.366Z,94042.44
2023-03-23T03:09:10.936Z,94000.59
2023-03-23T03:11:43.013Z,93989.97
2023-03-23T03:14:26.390Z,93976.22
2023-03-23T03:17:04.753Z,93990.94
2023-03-23T03:19:40.927Z,93977.19
2023-03-23T03:22:09.374Z,93994.66
2023-03-23T03:24:41.994Z,93943.22
2023-03-23T03:27:18.569Z,93965.25
2023-03-23T03:29:55.157Z,93965.75
2023-03-23T03:32:32.338Z,93983.88
2023-03-23T03:35:04.967Z,93991.59
2023-03-23T03:37:38.555Z,93992.56
2023-03-23T03:40:17.208Z,93993.03
2023-03-23T03:42:46.530Z,94018.53
2023-03-23T03:45:20.078Z,94026.09
2023-03-23T03:47:47.471Z,93984.06
2023-03-23T03:50:14.790Z,94015.59
2023-03-23T03:52:41.970Z,94001.88
2023-03-23T03:55:11.287Z,94013.63
2023-03-23T03:57:39.650Z,94013.97
2023-03-23T04:00:15.371Z,94012.47
2023-03-23T04:02:52.552Z,93999.22
2023-03-23T04:05:20.320Z,93982.69
2023-03-23T04:07:50.524Z,93971.09
2023-03-23T04:10:17.539Z,94002.13
2023-03-23T04:12:59.892Z,93987.44
2023-03-23T04:15:27.405Z,93978.84
2023-03-23T04:17:54.296Z,93998.38
2023-03-23T04:20:32.164Z,93955.28
2023-03-23T04:23:01.389Z,93966.84
2023-03-23T04:25:28.984Z,93967.84
2023-03-23T04:27:56.365Z,93977.94
2023-03-23T04:30:27.656Z,93981.81
2023-03-23T04:32:56.418Z,93958.69
2023-03-23T04:35:27.391Z,93976.16
2023-03-23T04:37:55.121Z,93974.72
2023-03-23T04:40:23.553Z,93985.97
2023-03-23T04:42:53.141Z,93982.88
2023-03-23T04:45:25.472Z,93989.06
2023-03-23T04:47:54.361Z,93992.69
2023-03-23T04:50:25.240Z,93966.88
2023-03-23T04:52:52.882Z,93986.63
2023-03-23T04:55:21.132Z,93971.63
2023-03-23T04:57:48.979Z,93987.03
2023-03-23T05:00:17.618Z,93965.91
2023-03-23T05:02:47.932Z,93981.28
2023-03-23T05:05:16.027Z,93984.22
2023-03-23T05:07:43.472Z,93977.41
2023-03-23T05:10:12.957Z,93986.81
2023-03-23T05:12:51.585Z,93972.78
2023-03-23T05:15:18.549Z,93963.81
2023-03-23T05:17:45.868Z,93977.84
2023-03-23T05:20:15.837Z,93973.75
2023-03-23T05:22:45.445Z,93960.06
2023-03-23T05:25:12.420Z,94006.78
2023-03-23T05:27:39.912Z,93989.44
2023-03-23T05:30:07.953Z,93980.94
2023-03-23T05:32:34.920Z,93988.78
2023-03-23T05:35:04.157Z,94003.47
2023-03-23T05:37:33.426Z,93975.38
2023-03-23T05:40:06.279Z,93982.88
2023-03-23T05:42:37.298Z,93988.72
2023-03-23T05:45:05.995Z,93997.53
2023-03-23T05:47:33.460Z,93986.28
2023-03-23T05:50:01.923Z,93987.09
2023-03-23T05:52:28.966Z,93982.34
2023-03-23T05:54:55.986Z,93987.91
2023-03-23T05:57:23.070Z,93986.56
2023-03-23T05:59:50.215Z,93992.91
2023-03-23T06:02:17.714Z,93989.94
2023-03-23T06:04:46.077Z,94004.31
2023-03-23T06:07:15.062Z,93993.72
2023-03-23T06:09:42.907Z,93990.13
2023-03-23T06:12:10.856Z,94006.78
2023-03-23T06:14:38.962Z,94005.28
2023-03-23T06:17:06.021Z,93978.88
2023-03-23T06:19:33.159Z,94012.09
2023-03-23T06:22:00.681Z,94019.34
2023-03-23T06:24:27.583Z,94018.09
2023-03-23T06:26:54.532Z,94000.53
2023-03-23T06:29:21.706Z,94015.38
2023-03-23T06:31:54.089Z,94010.34
2023-03-23T06:34:21.071Z,93998.38
2023-03-23T06:36:48.153Z,94008.31
2023-03-23T06:39:25.922Z,94002.44
2023-03-23T06:41:52.852Z,94006.59
2023-03-23T06:44:19.804Z,94029.47
2023-03-23T06:46:46.788Z,94032.03
2023-03-23T06:49:13.721Z,94037.22
2023-03-23T06:51:40.920Z,94051.72
2023-03-23T06:54:07.773Z,94013.63
2023-03-23T06:56:35.497Z,94022.72
2023-03-23T06:59:02.429Z,93970.44
2023-03-23T07:01:29.426Z,93980.19
2023-03-23T07:03:56.982Z,94007.81
2023-03-23T07:06:23.871Z,94041.56
2023-03-23T07:08:50.797Z,94026.75
2023-03-23T07:11:17.712Z,94029.84
2023-03-23T07:13:44.709Z,94005.69
2023-03-23T07:16:12.175Z,93982.22
2023-03-23T07:18:39.456Z,93984.44
2023-03-23T07:21:07.503Z,93984.19
2023-03-23T07:23:35.115Z,93988.44
2023-03-23T07:26:04.500Z,93989.38
2023-03-23T07:28:32.687Z,93988.72
2023-03-23T07:30:59.796Z,94018.66
2023-03-23T07:33:28.307Z,93990.56
2023-03-23T07:35:56.248Z,94062.38
2023-03-23T07:38:23.510Z,94020.06
2023-03-23T07:40:54.040Z,94030.81
2023-03-23T07:43:22.489Z,94008.44
2023-03-23T07:45:50.138Z,94023.00
2023-03-23T07:48:21.433Z,94011.16
2023-03-23T07:50:49.074Z,94005.97
2023-03-23T07:53:19.669Z,94012.22
2023-03-23T07:55:46.798Z,94006.72
2023-03-23T07:58:20.797Z,94003.25
2023-03-23T08:00:50.312Z,93995.09
2023-03-23T08:03:17.892Z,94009.84
2023-03-23T08:05:45.754Z,93993.63
2023-03-23T08:08:16.021Z,94019.00
2023-03-23T08:10:45.684Z,93985.69
2023-03-23T08:13:16.003Z,94027.84
2023-03-23T08:15:55.260Z,93991.63
2023-03-23T08:18:23.142Z,94003.91
2023-03-23T08:20:51.655Z,94000.22
2023-03-23T08:23:23.792Z,94063.16
2023-03-23T08:25:51.691Z,93995.63
2023-03-23T08:28:19.821Z,94062.97
2023-03-23T08:30:50.003Z,94002.19
2023-03-23T08:33:18.283Z,93998.94
2023-03-23T08:35:46.148Z,94018.06
2023-03-23T08:38:16.292Z,94072.13
2023-03-23T08:40:45.877Z,94050.31
2023-03-23T08:43:13.442Z,94044.00
2023-03-23T08:45:52.640Z,94019.78
2023-03-23T08:48:27.128Z,94018.75
2023-03-23T08:50:57.192Z,94014.06
2023-03-23T08:53:32.899Z,94091.69
2023-03-23T08:56:13.994Z,94029.72
2023-03-23T08:58:41.471Z,94057.72
2023-03-23T09:01:09.700Z,94019.44
2023-03-23T09:03:40.620Z,94041.41
2023-03-23T09:06:12.565Z,94086.88
2023-03-23T09:08:43.520Z,94023.66
2023-03-23T09:11:11.846Z,94032.16
2023-03-23T09:13:41.039Z,94073.78
2023-03-23T09:16:09.485Z,94075.56
2023-03-23T09:18:49.397Z,94052.66
2023-03-23T09:21:21.180Z,94045.16
2023-03-23T09:24:00.395Z,94056.09
2023-03-23T09:35:09.850Z,94061.97
2023-03-23T09:37:41.699Z,94058.25
2023-03-23T09:44:05.446Z,94068.19
2023-03-23T09:46:57.732Z,94130.91
2023-03-23T09:49:56.710Z,94123.38
2023-03-23T09:52:27.628Z,94119.84
2023-03-23T09:54:56.589Z,94128.97
2023-03-23T09:57:42.291Z,94103.00
2023-03-23T10:00:44.828Z,94124.19
2023-03-23T10:03:22.455Z,94099.53
2023-03-23T10:05:53.438Z,94097.03
2023-03-23T10:08:33.796Z,94124.22
2023-03-23T10:11:57.172Z,94119.88
2023-03-23T10:14:42.585Z,94122.41
2023-03-23T10:17:24.701Z,94116.50
2023-03-23T10:20:01.789Z,94116.78
2023-03-23T10:22:34.760Z,94102.28
2023-03-23T10:25:15.863Z,94117.03
2023-03-23T10:28:16.780Z,94105.81
2023-03-23T10:30:58.459Z,94101.00
2023-03-23T10:33:40.239Z,94125.06
2023-03-23T10:36:10.427Z,94106.97
2023-03-23T10:39:06.049Z,94112.88
2023-03-23T10:41:40.376Z,94129.03
2023-03-23T10:44:23.349Z,94097.38
2023-03-23T10:47:14.427Z,94077.31
2023-03-23T10:50:09.360Z,94084.41
2023-03-23T10:56:51.805Z,94103.09
2023-03-23T10:59:42.118Z,94103.22
2023-03-23T11:02:29.397Z,94097.59
2023-03-23T11:05:09.389Z,94093.81
2023-03-23T11:07:38.518Z,94117.38
2023-03-23T11:11:09.615Z,94156.63
2023-03-23T11:13:50.324Z,94122.00
2023-03-23T11:27:24.950Z,94152.53
2023-03-23T11:30:28.918Z,94082.16
2023-03-23T11:33:05.316Z,94082.44
2023-03-23T11:35:47.827Z,94118.56
2023-03-23T11:38:20.974Z,94144.53
2023-03-23T11:40:52.660Z,94142.66
2023-03-23T11:43:25.948Z,94115.63
2023-03-23T11:46:12.921Z,94100.16
2023-03-23T11:48:53.890Z,94115.25
2023-03-23T11:51:44.006Z,94108.91
2023-03-23T11:54:39.320Z,94105.56
2023-03-23T11:57:19.356Z,94133.09
2023-03-23T11:59:47.245Z,94106.47
2023-03-23T12:02:17.324Z,94128.97
2023-03-23T12:05:06.317Z,94122.66
2023-03-23T12:08:10.073Z,94103.72
2023-03-23T12:10:59.934Z,94116.41
2023-03-23T12:14:01.886Z,94117.59
2023-03-23T12:16:52.596Z,94121.47
2023-03-23T12:19:55.038Z,94103.72
2023-03-23T12:22:35.174Z,94104.31
2023-03-23T12:25:35.070Z,94111.56
2023-03-23T12:28:35.145Z,94092.81
2023-03-23T12:31:19.044Z,94093.84
2023-03-23T12:34:09.136Z,94092.34
2023-03-23T12:37:00.246Z,94079.34
2023-03-23T12:39:48.273Z,94078.59
2023-03-23T12:42:33.721Z,94084.06
2023-03-23T12:45:03.288Z,94083.06
2023-03-23T12:47:46.689Z,94057.75
2023-03-23T12:50:19.336Z,94084.66
2023-03-23T12:53:06.405Z,94076.38
2023-03-23T12:55:48.173Z,94067.22
2023-03-23T12:58:29.136Z,94058.28
2023-03-23T13:01:14.698Z,94072.78
2023-03-23T13:03:54.493Z,94074.88
2023-03-23T13:06:34.906Z,94050.91
2023-03-23T13:09:49.120Z,94057.25
2023-03-23T13:12:18.136Z,94033.72
2023-03-23T13:15:07.864Z,94072.78
2023-03-23T13:18:12.676Z,94043.41
2023-03-23T13:20:49.717Z,94046.88
2023-03-23T13:23:27.232Z,94044.56
2023-03-23T13:26:08.263Z,94051.63
2023-03-23T13:28:56.712Z,94053.97
2023-03-23T13:31:34.677Z,94034.28
2023-03-23T13:34:43.015Z,94036.25
2023-03-23T13:37:25.697Z,94057.16
2023-03-23T13:39:59.610Z,94046.56
2023-03-23T13:42:31.296Z,94035.53
2023-03-23T13:45:40.830Z,94058.03
2023-03-23T13:48:13.528Z,94069.56
2023-03-23T13:50:57.972Z,94038.19
2023-03-23T13:53:52.982Z,94056.13
2023-03-23T13:56:44.101Z,94043.72
2023-03-23T13:59:31.710Z,94053.00
2023-03-23T14:02:48.998Z,94052.66
2023-03-23T14:05:20.437Z,94055.97
2023-03-23T14:08:11.430Z,94057.22
2023-03-23T14:11:07.059Z,94065.03
2023-03-23T14:14:06.888Z,94054.03
2023-03-23T14:16:33.861Z,94056.28
2023-03-23T14:19:06.387Z,94027.09
2023-03-23T14:21:41.157Z,94050.88
2023-03-23T14:24:20.647Z,94064.84
2023-03-23T14:26:48.016Z,94068.84
2023-03-23T14:29:15.112Z,94052.66
2023-03-23T14:31:42.565Z,94044.09
2023-03-23T14:34:17.381Z,94056.38
2023-03-23T14:36:44.838Z,94036.31
2023-03-23T14:39:35.035Z,94041.53
2023-03-23T14:42:11.278Z,94028.59
2023-03-23T14:44:45.527Z,94042.84
2023-03-23T14:47:20.794Z,94025.22
2023-03-23T14:49:47.734Z,94040.69
2023-03-23T14:52:19.224Z,94025.66
2023-03-23T14:54:47.042Z,94025.06
2023-03-23T14:57:18.281Z,94036.88
2023-03-23T14:59:48.381Z,94034.78
2023-03-23T15:02:37.339Z,94023.16
2023-03-23T15:05:13.340Z,94033.59
2023-03-23T15:07:44.990Z,94033.72
2023-03-23T15:10:18.527Z,94028.94
2023-03-23T15:12:48.850Z,94034.22
2023-03-23T15:15:33.469Z,94015.34
2023-03-23T15:18:02.574Z,94004.06
2023-03-23T15:20:49.540Z,94035.94
2023-03-23T15:23:28.663Z,94020.91
2023-03-23T15:25:58.988Z,94023.34
2023-03-23T15:28:34.059Z,94027.56
2023-03-23T15:31:05.259Z,94010.75
2023-03-23T15:33:40.750Z,94014.28
2023-03-23T15:36:17.665Z,94014.00
2023-03-23T15:38:47.642Z,94021.66
2023-03-23T15:41:28.056Z,94018.72
2023-03-23T15:44:03.054Z,94016.94
2023-03-23T15:46:30.267Z,94011.31
2023-03-23T15:48:59.919Z,94024.16
2023-03-23T15:51:32.336Z,94011.91
2023-03-23T15:54:02.836Z,94024.16
2023-03-23T15:56:32.558Z,94024.22
2023-03-23T15:59:01.412Z,93994.31
2023-03-23T16:01:31.268Z,94012.06
2023-03-23T16:04:15.506Z,94022.50
2023-03-23T16:06:43.544Z,94009.47
2023-03-23T16:09:17.009Z,94029.38
2023-03-23T16:11:44.150Z,94032.00
2023-03-23T16:14:11.905Z,94028.84
2023-03-23T16:16:50.843Z,94015.84
2023-03-23T16:19:20.700Z,94005.09
2023-03-23T16:21:47.768Z,94013.91
2023-03-23T16:24:14.621Z,94028.97
2023-03-23T16:26:41.716Z,94010.59
2023-03-23T16:29:28.449Z,94024.91
2023-03-23T16:32:01.508Z,94005.91
2023-03-23T16:34:30.318Z,94003.91
2023-03-23T16:36:57.206Z,94010.59
2023-03-23T16:39:24.112Z,94004.13
2023-03-23T16:41:51.054Z,94015.28
2023-03-23T16:44:18.048Z,94028.72
2023-03-23T16:46:45.034Z,94007.66
2023-03-23T16:49:11.996Z,94015.34
2023-03-23T16:51:39.569Z,94015.00
2023-03-23T16:54:08.094Z,94005.19
2023-03-23T16:56:35.038Z,94010.56
2023-03-23T16:59:02.045Z,93998.00
2023-03-23T17:01:28.968Z,94017.25
2023-03-23T17:03:56.105Z,94007.72
2023-03-23T17:06:23.127Z,94025.13
2023-03-23T17:08:52.452Z,94011.53
2023-03-23T17:11:19.350Z,94009.91
2023-03-23T17:13:46.183Z,94028.94
2023-03-23T17:16:13.144Z,94024.88
2023-03-23T17:18:40.064Z,94024.88
2023-03-23T17:21:07.712Z,94030.97
2023-03-23T17:23:34.796Z,94008.91
2023-03-23T17:26:01.831Z,94039.13
2023-03-23T17:28:29.054Z,94012.69
2023-03-23T17:30:55.993Z,94033.44
2023-03-23T17:33:23.037Z,94046.47
2023-03-23T17:35:52.179Z,94040.63
2023-03-23T17:38:19.648Z,94026.75
2023-03-23T17:40:46.611Z,94037.59
2023-03-23T17:43:13.506Z,94033.94
2023-03-23T17:45:43.042Z,94038.63
2023-03-23T17:48:11.439Z,94048.03
2023-03-23T17:50:38.783Z,94049.84
2023-03-23T17:53:06.020Z,94048.66
2023-03-23T17:55:33.254Z,94045.78
2023-03-23T17:58:00.190Z,94040.94
2023-03-23T18:00:27.185Z,94048.69
2023-03-23T18:02:54.492Z,94062.13
2023-03-23T18:05:21.525Z,94055.03
2023-03-23T18:07:48.428Z,94067.25
2023-03-23T18:10:15.584Z,94056.88
2023-03-23T18:12:43.137Z,94054.28
2023-03-23T18:15:11.772Z,94061.16
2023-03-23T18:17:38.797Z,94059.81
2023-03-23T18:20:07.831Z,94051.06
2023-03-23T18:22:35.024Z,94072.81
2023-03-23T18:25:03.002Z,94066.75
2023-03-23T18:27:30.030Z,94047.22
2023-03-23T18:29:57.112Z,94031.78
2023-03-23T18:32:30.578Z,94035.03
2023-03-23T18:34:57.704Z,94046.03
2023-03-23T18:37:24.778Z,94023.47
2023-03-23T18:39:53.905Z,94068.00
2023-03-23T18:42:21.584Z,94033.44
2023-03-23T18:44:49.980Z,94071.47
2023-03-23T18:47:17.060Z,94029.38
2023-03-23T18:49:46.632Z,94039.97
2023-03-23T18:52:13.679Z,94024.09
2023-03-23T18:54:42.087Z,94040.38
2023-03-23T18:57:09.033Z,94063.38
2023-03-23T18:59:36.195Z,94058.69
2023-03-23T19:02:03.885Z,94059.50
2023-03-23T19:04:34.642Z,94066.00
2023-03-23T19:07:02.212Z,94078.19
2023-03-23T19:09:30.213Z,94072.72
2023-03-23T19:11:57.305Z,94056.84
2023-03-23T19:14:24.306Z,94052.59
2023-03-23T19:16:52.508Z,94077.00
2023-03-23T19:19:20.021Z,94047.31
2023-03-23T19:21:47.342Z,94066.41
2023-03-23T19:24:14.634Z,94044.47
2023-03-23T19:26:44.784Z,94068.44
2023-03-23T19:31:46.904Z,94068.88
2023-03-23T19:34:15.521Z,94066.22
2023-03-23T19:36:50.269Z,94050.16
2023-03-23T19:39:22.182Z,94051.78
2023-03-23T19:41:50.134Z,94028.00
2023-03-23T19:44:17.999Z,94041.22
2023-03-23T19:46:45.820Z,94057.91
2023-03-23T19:49:13.076Z,94054.22
2023-03-23T19:51:40.018Z,94047.72
2023-03-23T19:54:09.797Z,94048.53
2023-03-23T19:56:37.362Z,94045.91
2023-03-23T19:59:05.073Z,94055.66
2023-03-23T20:01:32.128Z,94043.25
2023-03-23T20:04:06.971Z,94001.38
2023-03-23T20:06:35.595Z,94026.16
2023-03-23T20:09:22.656Z,94009.91
2023-03-23T20:11:50.325Z,94010.13
2023-03-23T20:14:17.803Z,94029.41
2023-03-23T20:16:44.702Z,94039.59
2023-03-23T20:19:11.857Z,94039.59
2023-03-23T20:21:39.714Z,94026.19
2023-03-23T20:24:08.095Z,94030.22
2023-03-23T20:26:43.856Z,94027.78
2023-03-23T20:29:11.711Z,94013.16
2023-03-23T20:31:41.521Z,94018.47
2023-03-23T20:34:13.165Z,93992.44
2023-03-23T20:36:45.479Z,94022.94
2023-03-23T20:39:23.582Z,94013.19
2023-03-23T20:41:53.185Z,94012.16
2023-03-23T20:44:23.445Z,94014.38
2023-03-23T20:46:52.560Z,94020.28
2023-03-23T20:49:21.076Z,94017.03
2023-03-23T20:51:48.936Z,93998.91
2023-03-23T20:54:18.840Z,94029.03
2023-03-23T20:56:47.135Z,94022.53
2023-03-23T20:59:15.820Z,94023.53
2023-03-23T21:01:43.962Z,94020.06
2023-03-23T21:04:15.808Z,94000.78
2023-03-23T21:06:45.389Z,94003.81
2023-03-23T21:09:14.026Z,94003.38
2023-03-23T21:11:42.524Z,94000.56
2023-03-23T21:14:10.541Z,94000.56
2023-03-23T21:16:38.426Z,93995.22
2023-03-23T21:19:06.201Z,93989.56
2023-03-23T21:21:34.408Z,93990.34
2023-03-23T21:24:01.364Z,93967.97
2023-03-23T21:26:30.171Z,93983.00
2023-03-23T21:29:00.789Z,93980.75
2023-03-23T21:31:30.980Z,93983.00
2023-03-23T21:33:59.510Z,93957.59
2023-03-23T21:36:27.611Z,93947.63
2023-03-23T21:38:55.623Z,93962.28
2023-03-23T21:41:23.033Z,93949.28
2023-03-23T21:43:50.812Z,93951.47
2023-03-23T21:46:18.601Z,93949.22
2023-03-23T21:48:51.620Z,93931.31
2023-03-23T21:51:26.354Z,93956.53
2023-03-23T21:53:55.180Z,93958.38
2023-03-23T21:56:26.345Z,93942.06
2023-03-23T21:58:53.236Z,93954.88
2023-03-23T22:01:20.887Z,93947.75
2023-03-23T22:03:48.131Z,93929.22
2023-03-23T22:06:23.558Z,93933.69
2023-03-23T22:08:50.804Z,93922.03
2023-03-23T22:11:25.781Z,93903.16
2023-03-23T22:13:55.226Z,93915.31
2023-03-23T22:16:22.997Z,93897.44
2023-03-23T22:18:52.540Z,93879.91
2023-03-23T22:21:22.315Z,93920.38
2023-03-23T22:23:49.907Z,93898.22
2023-03-23T22:26:17.455Z,93898.59
2023-03-23T22:28:46.625Z,93863.78
2023-03-23T22:31:26.843Z,93893.25
2023-03-23T22:33:55.811Z,93890.19
2023-03-23T22:36:26.222Z,93878.97
2023-03-23T22:38:53.491Z,93882.00
2023-03-23T22:41:28.119Z,93900.66
2023-03-23T22:43:55.445Z,93857.13
2023-03-23T22:46:22.958Z,93866.69
2023-03-23T22:48:49.949Z,93882.78
2023-03-23T22:51:19.078Z,93888.41
2023-03-23T22:53:46.328Z,93894.94
2023-03-23T22:56:17.045Z,93879.91
2023-03-23T22:58:44.418Z,93855.69
2023-03-23T23:01:20.789Z,93898.25
2023-03-23T23:03:48.772Z,93887.78
2023-03-23T23:06:17.547Z,93890.63
2023-03-23T23:08:45.961Z,93903.84
2023-03-23T23:11:16.450Z,93895.06
2023-03-23T23:13:43.684Z,93855.88
2023-03-23T23:16:12.196Z,93896.06
2023-03-23T23:18:40.882Z,93893.84
2023-03-23T23:21:15.880Z,93880.38
2023-03-23T23:23:45.036Z,93892.75
2023-03-23T23:26:12.694Z,93884.78
2023-03-23T23:28:39.691Z,93908.84
2023-03-23T23:31:26.646Z,93907.97
2023-03-23T23:33:57.011Z,93881.75
2023-03-23T23:36:30.437Z,93909.72
2023-03-23T23:39:01.638Z,93912.94
2023-03-23T23:41:30.166Z,93912.09
2023-03-23T23:43:57.178Z,93933.00
2023-03-23T23:46:24.177Z,93935.06
2023-03-23T23:48:51.475Z,93903.31
2023-03-23T23:51:18.969Z,93913.56
2023-03-23T23:53:53.625Z,93879.38
2023-03-23T23:56:21.753Z,93901.56
2023-03-23T23:58:49.234Z,93917.56
